Time;durP1;ratioP1;P1;durP2;ratioP2;P2;SDS_P1;SDS_P2;PMS_P1;PMS_P2;Temp;Humidity;BMP_temperature;BMP_pressure;BME280_temperature;BME280_humidity;BME280_pressure;Samples;Min_cycle;Max_cycle;Signal;HPM_P1;HPM_P2
2021/03/18 00:00:49;;;;;;;;;;;;;;;1.29;73.86;98244.41;10150165;29;20463;-74
2021/03/18 00:06:09;;;;;;;5.60;3.85;;;;;;;1.35;73.69;98247.06;10163327;29;19994;-75
2021/03/18 00:11:29;;;;;;;6.00;4.22;;;;;;;1.40;73.58;98243.50;10163494;29;20448;-74
2021/03/18 00:16:49;;;;;;;5.32;4.22;;;;;;;1.40;73.93;98244.25;10163836;29;20476;-75
2021/03/18 00:22:09;;;;;;;5.13;4.00;;;;;;;1.44;73.57;98244.69;10150702;29;20126;-74
2021/03/18 00:27:29;;;;;;;5.70;4.63;;;;;;;1.47;73.87;98242.91;10163763;29;20048;-74
2021/03/18 00:32:49;;;;;;;7.30;5.00;;;;;;;1.48;73.21;98243.66;10150080;29;20067;-74
2021/03/18 00:38:10;;;;;;;5.75;4.63;;;;;;;1.54;73.36;98236.06;10162963;29;20084;-74
2021/03/18 00:43:30;;;;;;;6.10;4.88;;;;;;;1.53;74.01;98229.81;10162864;29;20071;-74
2021/03/18 00:48:51;;;;;;;5.80;4.88;;;;;;;1.57;73.38;98232.28;10149696;29;20054;-75
2021/03/18 00:54:10;;;;;;;6.40;5.13;;;;;;;1.55;73.61;98229.31;10162499;29;20048;-73
2021/03/18 00:59:30;;;;;;;7.40;5.60;;;;;;;1.48;73.47;98227.91;10162270;29;20388;-74
2021/03/18 01:04:50;;;;;;;7.45;5.43;;;;;;;1.47;73.47;98220.16;10149008;29;20052;-74
2021/03/18 01:10:12;;;;;;;8.27;6.55;;;;;;;1.43;73.46;98215.69;10148740;29;20056;-74
2021/03/18 01:15:32;;;;;;;7.43;6.00;;;;;;;1.46;73.79;98213.19;10161890;29;20052;-74
2021/03/18 01:20:52;;;;;;;9.23;6.13;;;;;;;1.47;73.33;98215.41;10134713;29;20103;-74
2021/03/18 01:26:12;;;;;;;9.98;7.10;;;;;;;1.43;73.79;98210.19;10147872;29;20508;-74
2021/03/18 01:31:32;;;;;;;10.30;7.53;;;;;;;1.40;73.71;98207.75;10161201;29;20055;-73
2021/03/18 01:36:52;;;;;;;9.63;7.38;;;;;;;1.49;73.76;98203.88;10148143;29;20044;-74
2021/03/18 01:42:11;;;;;;;9.93;7.97;;;;;;;1.53;74.00;98207.06;10147634;29;20444;-74
2021/03/18 01:47:31;;;;;;;11.15;7.78;;;;;;;1.44;73.71;98206.16;10160756;29;20040;-74
2021/03/18 01:52:52;;;;;;;8.52;7.28;;;;;;;1.34;73.76;98213.31;10160866;29;20452;-74
2021/03/18 01:58:12;;;;;;;11.52;7.65;;;;;;;1.36;73.66;98216.31;10147338;29;20064;-73
2021/03/18 02:03:32;;;;;;;11.75;8.05;;;;;;;1.42;73.96;98208.69;10160205;29;20051;-74
2021/03/18 02:08:51;;;;;;;9.00;7.18;;;;;;;1.49;73.93;98207.38;10160504;29;20044;-75
2021/03/18 02:14:12;;;;;;;8.88;7.03;;;;;;;1.58;73.93;98217.25;10160417;29;20056;-74
2021/03/18 02:19:46;;;;;;;9.07;7.13;;;;;;;1.70;73.79;98224.06;10160119;29;20048;-74
2021/03/18 02:25:42;;;;;;;10.88;7.22;;;;;;;1.75;73.87;98228.75;10148565;29;20066;-74
2021/03/18 02:31:11;;;;;;;10.23;7.53;;;;;;;1.74;73.92;98227.28;10160127;29;20044;-73
2021/03/18 02:36:46;;;;;;;9.40;7.45;;;;;;;1.79;73.48;98217.44;10154138;29;20563;-74
2021/03/18 02:42:07;;;;;;;8.40;6.97;;;;;;;1.76;73.45;98213.00;10141574;29;20048;-74
2021/03/18 02:47:28;;;;;;;8.80;7.32;;;;;;;1.76;73.37;98218.50;10154371;29;20036;-74
2021/03/18 02:52:47;;;;;;;9.45;7.80;;;;;;;1.76;73.41;98216.47;10140661;29;20036;-74
2021/03/18 02:58:07;;;;;;;10.05;7.82;;;;;;;1.65;73.59;98222.16;10140997;29;20156;-74
2021/03/18 03:03:27;;;;;;;9.60;7.30;;;;;;;1.54;73.57;98225.03;10127679;29;20048;-74
2021/03/18 03:08:47;;;;;;;9.93;7.50;;;;;;;1.49;73.54;98223.13;10127333;29;20528;-73
2021/03/18 03:14:08;;;;;;;9.98;7.53;;;;;;;1.55;73.63;98221.06;10127427;29;20397;-74
2021/03/18 03:19:29;;;;;;;9.10;7.85;;;;;;;1.67;73.53;98222.38;10140338;29;20053;-75
2021/03/18 03:24:50;;;;;;;9.32;7.78;;;;;;;1.72;74.00;98224.28;10140239;29;20045;-75
2021/03/18 03:30:11;;;;;;;10.35;8.15;;;;;;;1.76;73.99;98224.75;10140192;29;20152;-76
2021/03/18 03:35:32;;;;;;;10.38;7.70;;;;;;;1.82;73.95;98225.38;10140001;29;20048;-75
2021/03/18 03:40:51;;;;;;;10.95;8.60;;;;;;;1.92;73.74;98225.72;10139523;29;20060;-76
2021/03/18 03:46:11;;;;;;;10.70;8.40;;;;;;;1.95;73.19;98227.44;10125181;29;20045;-75
2021/03/18 03:51:54;;;;;;;10.98;8.60;;;;;;;1.96;73.51;98228.94;10113154;29;20389;-75
2021/03/18 03:57:24;;;;;;;10.77;8.80;;;;;;;1.98;73.54;98221.63;10138975;29;20100;-76
2021/03/18 04:02:44;;;;;;;10.82;9.15;;;;;;;2.06;73.32;98218.28;10138937;29;20048;-75
2021/03/18 04:08:06;;;;;;;10.45;8.52;;;;;;;2.08;73.22;98210.22;10138421;29;20123;-75
2021/03/18 04:13:26;;;;;;;10.93;8.95;;;;;;;2.07;73.68;98217.00;10138434;29;20059;-75
2021/03/18 04:18:46;;;;;;;11.98;9.13;;;;;;;2.11;73.13;98215.41;10112352;29;20084;-74
2021/03/18 04:24:07;;;;;;;13.75;10.32;;;;;;;2.15;73.06;98212.34;10124841;29;20115;-74
2021/03/18 04:29:26;;;;;;;14.02;10.35;;;;;;;2.16;72.90;98211.84;10111611;29;20049;-75
2021/03/18 04:34:46;;;;;;;12.50;9.77;;;;;;;2.14;73.11;98219.13;10137753;29;20404;-75
2021/03/18 04:40:08;;;;;;;15.75;10.32;;;;;;;2.12;73.01;98216.16;10124639;29;20112;-75
2021/03/18 04:45:28;;;;;;;13.88;10.00;;;;;;;2.14;72.94;98219.88;10136944;29;20056;-75
2021/03/18 04:50:48;;;;;;;13.88;10.27;;;;;;;2.09;73.44;98209.69;10123876;29;20060;-75
2021/03/18 04:56:08;;;;;;;13.75;10.27;;;;;;;2.05;72.66;98211.28;10136423;29;20056;-75
2021/03/18 05:01:28;;;;;;;14.30;10.45;;;;;;;2.04;73.14;98215.31;10123715;29;20511;-75
2021/03/18 05:06:52;;;;;;;13.68;10.93;;;;;;;2.04;72.73;98205.03;10123497;29;20052;-75
2021/03/18 05:12:12;;;;;;;;;;;;;;;2.00;72.96;98208.06;10123921;29;20107;-75
2021/03/18 05:17:35;;;;;;;13.70;10.98;;;;;;;2.03;73.03;98220.06;10123103;29;19939;-75
2021/03/18 05:22:54;;;;;;;13.80;10.48;;;;;;;2.05;72.98;98205.78;10109873;29;20056;-77
2021/03/18 05:28:15;;;;;;;13.77;10.13;;;;;;;2.10;72.91;98215.94;10123049;29;20548;-75
2021/03/18 05:33:34;;;;;;;14.98;10.88;;;;;;;2.12;72.47;98208.63;10135834;29;20047;-75
2021/03/18 05:38:54;;;;;;;15.13;10.50;;;;;;;2.15;72.95;98223.38;10122707;29;20052;-75
2021/03/18 05:44:14;;;;;;;16.23;11.55;;;;;;;2.26;72.68;98218.41;10135336;29;20049;-74
2021/03/18 05:49:34;;;;;;;16.13;11.27;;;;;;;2.33;72.37;98213.56;10122260;29;20076;-76
2021/03/18 05:54:53;;;;;;;17.33;12.02;;;;;;;2.44;72.41;98219.63;10134793;29;20127;-75
2021/03/18 06:00:14;;;;;;;16.67;12.20;;;;;;;2.50;72.65;98220.25;10122104;29;20477;-74
2021/03/18 06:05:34;;;;;;;15.98;11.40;;;;;;;2.59;72.13;98219.81;10135033;29;20044;-75
2021/03/18 06:10:56;;;;;;;15.05;10.98;;;;;;;2.66;71.91;98223.22;10127745;29;20044;-76
2021/03/18 06:16:15;;;;;;;14.77;10.25;;;;;;;2.73;72.07;98223.34;10129546;29;20092;-75
2021/03/18 06:21:54;;;;;;;12.57;9.60;;;;;;;2.95;72.11;98226.94;10127771;29;20041;-76
2021/03/18 06:27:21;;;;;;;13.45;9.93;;;;;;;3.41;71.80;98228.25;10103454;29;20051;-75
2021/03/18 06:32:41;;;;;;;13.18;9.82;;;;;;;3.83;71.45;98233.84;10129242;29;20052;-75
2021/03/18 06:38:01;;;;;;;13.23;9.88;;;;;;;3.97;70.43;98232.50;10125161;29;20044;-75
2021/03/18 06:43:41;;;;;;;13.00;9.38;;;;;;;4.03;70.02;98241.38;10099248;29;20059;-75
2021/03/18 06:49:13;;;;;;;12.73;9.07;;;;;;;4.10;70.22;98237.97;10117223;29;20291;-76
2021/03/18 06:54:40;;;;;;;11.82;8.73;;;;;;;4.37;69.86;98241.31;10128539;29;20067;-75
2021/03/18 07:00:00;;;;;;;12.35;9.63;;;;;;;4.54;70.57;98238.88;10129062;29;20088;-75
2021/03/18 07:05:20;;;;;;;13.00;9.57;;;;;;;4.77;69.52;98241.78;10127833;29;20044;-75
2021/03/18 07:10:40;;;;;;;12.05;9.02;;;;;;;5.10;69.79;98231.09;10140679;29;20400;-75
2021/03/18 07:15:59;;;;;;;12.80;9.13;;;;;;;5.66;69.33;98235.00;10114457;29;20043;-75
2021/03/18 07:21:19;;;;;;;12.50;8.38;;;;;;;6.27;68.46;98235.88;10111893;29;20460;-75
2021/03/18 07:26:39;;;;;;;14.75;9.40;;;;;;;6.90;67.21;98232.47;10139943;29;20444;-75
2021/03/18 07:31:59;;;;;;;13.68;9.10;;;;;;;7.11;66.84;98238.53;10139475;29;20048;-75
2021/03/18 07:37:19;;;;;;;10.00;8.55;;;;;;;6.87;66.39;98239.16;10126398;29;20121;-75
2021/03/18 07:42:39;;;;;;;10.82;9.13;;;;;;;7.04;66.03;98236.50;10139296;29;20499;-75
2021/03/18 07:48:00;;;;;;;11.38;8.98;;;;;;;7.64;65.76;98226.47;10152256;29;20127;-75
2021/03/18 07:53:19;;;;;;;13.82;11.02;;;;;;;8.82;65.24;98222.44;10139328;29;20051;-76
2021/03/18 07:58:40;;;;;;;14.85;10.95;;;;;;;9.99;64.31;98227.53;10138126;29;20112;-75
2021/03/18 08:04:05;;;;;;;10.63;8.70;;;;;;;11.32;61.70;98231.81;10151680;29;20472;-76
2021/03/18 08:09:25;;;;;;;10.02;8.38;;;;;;;11.96;60.50;98229.38;10138971;29;20395;-75
2021/03/18 08:14:45;;;;;;;9.85;8.82;;;;;;;18.65;57.85;98229.31;10157704;29;20123;-75
2021/03/18 08:20:05;;;;;;;7.95;7.18;;;;;;;28.59;47.79;98231.06;10120144;29;20432;-76
2021/03/18 08:25:25;;;;;;;7.55;6.82;;;;;;;37.79;23.21;98226.22;10150662;29;20559;-76
2021/03/18 08:30:45;;;;;;;6.75;6.05;;;;;;;39.40;18.40;98226.78;10149495;29;20444;-77
2021/03/18 08:36:31;;;;;;;6.30;5.70;;;;;;;44.18;9.86;98215.81;10136870;29;20436;-76
2021/03/18 08:41:50;;;;;;;6.00;4.88;;;;;;;44.96;7.98;98211.69;10150617;29;20079;-75
2021/03/18 08:47:12;;;;;;;5.25;4.70;;;;;;;46.45;5.80;98208.28;10162519;29;20048;-77
2021/03/18 08:52:36;;;;;;;4.75;4.35;;;;;;;46.24;6.12;98191.31;10136560;29;20044;-78
2021/03/18 08:57:59;;;;;;;4.55;4.15;;;;;;;49.45;4.06;98192.53;10106315;29;20056;-77
2021/03/18 09:03:20;;;;;;;5.70;5.20;;;;;;;41.41;5.51;98190.00;10097050;29;20060;-78
2021/03/18 09:08:40;;;;;;;4.72;4.10;;;;;;;44.49;5.75;98185.91;10123192;29;20048;-77
2021/03/18 09:14:01;;;;;;;4.07;3.67;;;;;;;49.41;3.72;98180.31;10108285;29;20067;-75
2021/03/18 09:19:21;;;;;;;4.43;3.42;;;;;;;52.92;2.10;98168.25;10086929;29;20051;-78
2021/03/18 09:24:54;;;;;;;3.10;2.90;;;;;;;53.12;1.39;98164.84;10096386;29;20049;-77
2021/03/18 09:30:45;;;;;;;2.92;2.60;;;;;;;52.60;1.39;98154.28;10097412;29;20068;-79
2021/03/18 09:36:14;;;;;;;3.00;2.47;;;;;;;53.53;1.19;98137.56;10109728;29;20500;-77
2021/03/18 09:41:39;;;;;;;2.53;2.25;;;;;;;52.42;0.96;98141.19;10135602;29;20123;-78
2021/03/18 09:47:01;;;;;;;4.20;2.33;;;;;;;49.46;1.23;98134.63;10109111;29;20044;-75
2021/03/18 09:52:28;;;;;;;2.70;2.50;;;;;;;35.38;4.30;98136.63;10095767;29;20048;-76
2021/03/18 09:57:48;;;;;;;3.60;2.80;;;;;;;26.79;8.34;98120.16;10097243;29;20067;-76
2021/03/18 10:03:08;;;;;;;4.05;2.50;;;;;;;22.13;10.78;98119.91;10108611;29;20044;-76
2021/03/18 10:08:28;;;;;;;4.65;3.13;;;;;;;19.45;13.19;98118.00;10095280;29;20048;-78
2021/03/18 10:13:50;;;;;;;3.88;3.38;;;;;;;18.57;14.94;98110.91;10108417;29;20055;-78
2021/03/18 10:19:10;;;;;;;5.15;3.17;;;;;;;23.38;14.76;98105.31;10097243;29;20049;-78
2021/03/18 10:24:30;;;;;;;3.25;2.85;;;;;;;27.83;11.26;98113.06;10095741;29;20065;-84
2021/03/18 10:29:51;;;;;;;3.35;2.90;;;;;;;22.27;13.10;98106.06;10108637;29;20048;-84
2021/03/18 10:35:11;;;;;;;4.03;3.50;;;;;;;19.39;15.27;98109.28;10094877;29;20450;-82
2021/03/18 10:40:41;;;;;;;5.07;3.60;;;;;;;17.35;16.40;98099.84;10107788;29;20055;-84
2021/03/18 10:46:04;;;;;;;5.00;4.32;;;;;;;15.81;17.37;98096.47;10107695;29;20064;-87
2021/03/18 10:51:24;;;;;;;5.97;4.60;;;;;;;14.98;19.04;98095.50;10108110;29;20441;-84
2021/03/18 10:56:43;;;;;;;4.15;3.75;;;;;;;13.72;19.94;98090.97;10112229;29;20056;-77
2021/03/18 11:02:04;;;;;;;6.30;3.97;;;;;;;13.80;20.97;98080.22;10163952;29;20044;-79
2021/03/18 11:07:24;;;;;;;4.88;3.10;;;;;;;14.68;21.43;98085.34;10151264;29;20051;-79
2021/03/18 11:13:00;;;;;;;4.07;3.30;;;;;;;15.68;21.33;98083.84;10154401;29;20052;-79
2021/03/18 11:18:38;;;;;;;3.55;2.78;;;;;;;16.90;21.32;98071.66;10102015;29;20041;-79
2021/03/18 11:24:19;;;;;;;3.30;2.90;;;;;;;17.86;20.36;98077.53;10125683;29;20041;-79
2021/03/18 11:29:39;;;;;;;2.53;2.28;;;;;;;16.83;20.40;98073.44;10125880;29;20485;-79
2021/03/18 11:35:00;;;;;;;3.90;2.22;;;;;;;15.65;20.78;98068.22;10141263;29;20049;-79
2021/03/18 11:40:20;;;;;;;2.92;2.10;;;;;;;17.08;20.98;98066.84;10126336;29;20461;-80
2021/03/18 11:45:40;;;;;;;2.30;1.75;;;;;;;18.21;20.52;98051.47;10139431;29;20040;-80
2021/03/18 11:51:00;;;;;;;2.65;1.60;;;;;;;18.49;19.42;98042.75;10126021;29;20051;-80
2021/03/18 11:56:20;;;;;;;1.88;1.10;;;;;;;18.02;19.30;98037.94;10152476;29;20048;-80
2021/03/18 12:01:40;;;;;;;4.15;1.70;;;;;;;17.51;19.05;98032.16;10125806;29;20048;-80
2021/03/18 12:07:00;;;;;;;1.80;1.50;;;;;;;17.46;19.27;98012.19;10137802;29;20049;-79
2021/03/18 12:12:20;;;;;;;2.78;1.70;;;;;;;15.80;19.38;98018.28;10137118;29;20461;-80
2021/03/18 12:17:39;;;;;;;3.03;1.75;;;;;;;13.96;20.56;98013.09;10120041;29;20128;-80
2021/03/18 12:22:59;;;;;;;4.25;1.52;;;;;;;13.41;21.27;98002.19;10142662;29;20485;-81
2021/03/18 12:28:20;;;;;;;3.30;2.40;;;;;;;13.50;21.81;98003.38;10169598;29;20045;-80
2021/03/18 12:33:40;;;;;;;2.47;2.10;;;;;;;12.64;22.09;97988.97;10141132;29;20092;-79
2021/03/18 12:39:00;;;;;;;2.90;2.50;;;;;;;11.84;22.91;97990.78;10157218;29;20064;-80
2021/03/18 12:44:19;;;;;;;3.60;2.42;;;;;;;11.15;24.23;97979.19;10140652;29;20058;-81
2021/03/18 12:49:40;;;;;;;2.00;1.70;;;;;;;10.88;23.93;97967.50;10157261;29;20044;-80
2021/03/18 12:55:00;;;;;;;2.70;2.10;;;;;;;10.99;24.82;97960.56;10154943;29;20056;-81
2021/03/18 13:00:25;;;;;;;2.63;1.67;;;;;;;12.09;24.34;97951.88;10153356;29;20073;-80
2021/03/18 13:05:46;;;;;;;2.53;1.88;;;;;;;13.22;24.06;97942.78;10122077;29;20052;-80
2021/03/18 13:11:06;;;;;;;3.78;1.52;;;;;;;12.63;23.66;97937.09;10140377;29;20778;-79
2021/03/18 13:16:25;;;;;;;2.05;1.45;;;;;;;12.20;23.81;97928.81;10118285;29;20053;-81
2021/03/18 13:21:49;;;;;;;2.28;1.60;;;;;;;11.40;24.39;97931.28;10147495;29;20053;-79
2021/03/18 13:27:09;;;;;;;;;;;;;;;11.73;25.09;97911.78;10141879;29;20036;-80
2021/03/18 13:32:29;;;;;;;2.08;1.40;;;;;;;12.45;24.83;97907.94;10158576;29;19930;-80
2021/03/18 13:37:49;;;;;;;2.53;1.50;;;;;;;12.97;24.42;97909.75;10153660;29;20085;-80
2021/03/18 13:43:09;;;;;;;2.72;1.75;;;;;;;13.41;24.16;97897.69;10151694;29;20048;-80
2021/03/18 13:48:29;;;;;;;2.35;1.58;;;;;;;13.35;24.09;97897.34;10483222;23;20411;-80
2021/03/18 13:53:49;;;;;;;3.22;1.48;;;;;;;12.21;24.30;97879.16;10193831;29;20047;-81
2021/03/18 13:59:11;;;;;;;2.47;1.70;;;;;;;11.31;25.23;97883.81;10213789;29;20070;-82
2021/03/18 14:04:34;;;;;;;2.88;1.85;;;;;;;10.74;25.66;97880.69;10221859;29;20056;-79
2021/03/18 14:09:54;;;;;;;5.03;1.75;;;;;;;10.43;26.32;97863.19;10239804;29;20046;-81
2021/03/18 14:15:16;;;;;;;2.30;1.58;;;;;;;10.48;26.88;97865.66;10230067;29;20103;-80
2021/03/18 14:20:38;;;;;;;2.33;1.50;;;;;;;9.84;26.46;97865.28;10192505;29;20040;-80
2021/03/18 14:25:57;;;;;;;3.30;1.83;;;;;;;9.41;27.30;97867.03;10215384;29;20062;-79
2021/03/18 14:31:14;;;;;;;6.00;3.03;;;;;;;9.30;27.72;97862.03;10249928;29;20039;-82
2021/03/18 14:36:34;;;;;;;5.53;3.40;;;;;;;9.40;28.82;97855.16;10277984;29;20647;-80
2021/03/18 14:41:55;;;;;;;4.43;2.67;;;;;;;9.36;28.69;97854.88;10222364;29;20180;-79
2021/03/18 14:47:15;;;;;;;4.72;3.10;;;;;;;9.44;28.94;97849.13;10196436;29;20103;-79
2021/03/18 14:52:35;;;;;;;3.60;2.58;;;;;;;9.63;29.90;97831.69;10228686;29;20039;-78
2021/03/18 14:57:58;;;;;;;2.70;2.15;;;;;;;9.78;30.15;97836.25;10211441;29;20059;-80
2021/03/18 15:03:17;;;;;;;2.28;1.65;;;;;;;9.67;29.48;97818.78;10216669;29;20039;-78
2021/03/18 15:08:37;;;;;;;2.25;1.55;;;;;;;9.58;29.60;97818.78;10196306;29;20044;-78
2021/03/18 15:13:57;;;;;;;4.38;1.85;;;;;;;9.39;29.83;97813.94;10228568;29;20047;-80
2021/03/18 15:19:17;;;;;;;3.47;1.42;;;;;;;9.18;30.05;97822.88;10214378;29;20071;-80
2021/03/18 15:24:37;;;;;;;3.58;1.70;;;;;;;8.94;30.25;97807.88;10195732;29;20051;-80
2021/03/18 15:29:57;;;;;;;1.75;1.55;;;;;;;8.66;31.70;97811.31;10763525;23;20035;-80
2021/03/18 15:35:16;;;;;;;2.42;1.40;;;;;;;8.43;31.10;97797.75;10272283;28;20047;-77
2021/03/18 15:40:37;;;;;;;2.55;1.50;;;;;;;8.36;31.55;97799.31;10269877;28;20049;-80
2021/03/18 15:45:58;;;;;;;2.67;1.27;;;;;;;8.12;31.53;97797.44;10621736;23;20043;-82
2021/03/18 15:57:10;;;;;;;4.93;1.98;;;;;;;7.98;32.29;97794.28;10518132;23;20076;-79
2021/03/18 16:22:30;;;;;;;4.22;1.98;;;;;;;6.73;35.68;97785.66;12104735;23;20034;31
2021/03/18 16:27:50;;;;;;;4.05;2.60;;;;;;;6.55;35.54;97791.16;9984911;29;20062;-78
2021/03/18 16:33:12;;;;;;;5.18;2.90;;;;;;;6.38;36.10;97788.34;9996083;29;20510;-79
2021/03/18 16:38:32;;;;;;;3.78;2.28;;;;;;;6.21;37.55;97782.72;9978331;29;20054;-78
2021/03/18 16:43:52;;;;;;;4.45;2.55;;;;;;;6.00;36.82;97794.13;9983951;29;20505;-78
2021/03/18 16:49:13;;;;;;;4.50;2.45;;;;;;;5.88;37.63;97782.69;9983807;29;20049;-78
2021/03/18 16:54:33;;;;;;;4.18;2.90;;;;;;;5.73;38.33;97772.44;9995623;29;20079;-78
2021/03/18 16:59:53;;;;;;;6.47;2.88;;;;;;;5.66;38.39;97775.25;10005308;29;20061;-82
2021/03/18 17:05:13;;;;;;;3.65;2.85;;;;;;;5.59;38.40;97773.25;10562362;23;20073;-85
2021/03/18 17:11:13;;;;;;;4.50;2.97;;;;;;;5.44;39.60;97769.25;10123252;23;20033;31
2021/03/18 17:16:36;;;;;;;4.43;3.30;;;;;;;5.27;39.34;97774.66;10136217;24;20117;-79
2021/03/18 17:22:14;;;;;;;5.32;3.00;;;;;;;5.13;40.57;97770.66;10318632;23;20076;31
2021/03/18 17:28:03;;;;;;;5.57;3.35;;;;;;;5.03;41.18;97769.75;11302555;23;20034;31
2021/03/18 17:33:26;;;;;;;5.90;3.50;;;;;;;4.99;42.43;97772.16;11677205;23;20087;-81
2021/03/18 17:39:14;;;;;;;6.13;3.10;;;;;;;4.94;41.18;97767.56;11324544;23;20041;-80
2021/03/18 17:44:38;;;;;;;5.40;3.08;;;;;;;4.96;41.92;97776.03;10198735;23;21293;-78
2021/03/18 17:49:58;;;;;;;5.50;3.20;;;;;;;4.92;42.18;97767.34;10060722;29;20049;-80
2021/03/18 17:55:19;;;;;;;9.10;3.67;;;;;;;4.84;42.22;97768.13;10052794;29;20077;-80
2021/03/18 18:00:39;;;;;;;7.85;3.00;;;;;;;4.85;42.71;97758.53;10035709;29;20098;-81
2021/03/18 18:05:59;;;;;;;4.50;3.03;;;;;;;4.80;42.81;97751.16;10023107;29;20405;-79
2021/03/18 18:11:19;;;;;;;4.93;2.97;;;;;;;4.82;42.94;97753.34;10032547;29;20046;-75
2021/03/18 18:16:39;;;;;;;5.47;3.40;;;;;;;4.79;43.48;97751.72;10032409;29;20072;-76
2021/03/18 18:21:58;;;;;;;4.97;2.80;;;;;;;4.78;43.58;97747.47;10044675;29;20113;-75
2021/03/18 18:27:18;;;;;;;4.88;2.65;;;;;;;4.76;43.82;97745.28;10045411;29;20068;-79
2021/03/18 18:32:38;;;;;;;5.32;2.92;;;;;;;4.74;44.22;97747.13;10070098;29;20077;-82
2021/03/18 18:38:06;;;;;;;4.32;2.78;;;;;;;4.69;44.38;97748.78;10265942;23;20016;31
2021/03/18 18:43:26;;;;;;;4.75;2.50;;;;;;;4.70;44.42;97755.03;11160441;24;20057;-84
2021/03/18 18:48:47;;;;;;;6.50;3.40;;;;;;;4.66;44.96;97749.91;10303738;23;20053;-83
2021/03/18 18:54:10;;;;;;;6.30;3.53;;;;;;;4.60;44.58;97744.53;10984307;23;20060;-79
2021/03/18 18:59:30;;;;;;;4.40;3.03;;;;;;;4.60;45.42;97752.09;10077185;29;20052;-76
2021/03/18 19:04:49;;;;;;;4.00;3.17;;;;;;;4.63;45.77;97750.97;10069483;29;20092;-76
2021/03/18 19:10:15;;;;;;;5.05;3.40;;;;;;;4.62;45.42;97746.75;10075269;29;20408;-78
2021/03/18 19:15:35;;;;;;;7.13;3.60;;;;;;;4.58;45.76;97743.63;10085384;29;20053;-79
2021/03/18 19:20:55;;;;;;;7.00;3.58;;;;;;;4.45;45.80;97732.78;10066167;29;20053;-79
2021/03/18 19:26:17;;;;;;;6.35;4.07;;;;;;;4.42;46.49;97740.13;10086287;29;20056;-85
2021/03/18 19:31:37;;;;;;;5.90;4.15;;;;;;;4.36;46.39;97741.63;10078533;29;20080;-79
2021/03/18 19:36:59;;;;;;;9.77;5.55;;;;;;;4.36;46.21;97738.84;10094005;29;20052;-85
2021/03/18 19:42:19;;;;;;;8.32;4.68;;;;;;;4.32;48.29;97741.97;10677875;23;20192;-84
2021/03/18 19:47:49;;;;;;;6.93;5.05;;;;;;;4.19;47.13;97739.41;10105099;29;20049;-84
2021/03/18 19:53:12;;;;;;;9.23;5.18;;;;;;;4.13;47.67;97736.81;10083901;29;20081;-78
2021/03/18 19:58:33;;;;;;;9.00;5.65;;;;;;;4.15;48.30;97731.50;10077534;29;20041;-78
2021/03/18 20:03:52;;;;;;;8.55;5.60;;;;;;;4.19;48.27;97739.41;10972860;23;20458;-80
2021/03/18 20:09:13;;;;;;;9.45;5.38;;;;;;;4.15;48.63;97741.78;10112006;23;20081;-81
2021/03/18 20:14:36;;;;;;;9.90;5.40;;;;;;;4.02;48.75;97742.69;10858349;24;20114;-78
2021/03/18 20:19:56;;;;;;;7.03;5.00;;;;;;;3.97;49.36;97736.06;10127149;29;20053;-79
2021/03/18 20:25:16;;;;;;;6.18;4.30;;;;;;;3.87;49.06;97737.16;11913905;23;20023;-82
2021/03/18 20:30:48;;;;;;;8.18;4.88;;;;;;;3.79;49.68;97741.94;10011735;29;20058;-84
2021/03/18 20:36:08;;;;;;;7.57;4.57;;;;;;;3.74;50.74;97741.53;11105537;23;20020;-79
2021/03/18 20:41:27;;;;;;;7.78;4.00;;;;;;;3.71;50.31;97744.66;10061122;29;20400;-79
2021/03/18 20:46:47;;;;;;;6.07;3.88;;;;;;;3.66;50.96;97740.78;10074673;29;20100;-80
2021/03/18 20:52:07;;;;;;;6.93;3.88;;;;;;;3.63;51.24;97730.84;10075251;29;20052;-81
2021/03/18 20:57:28;;;;;;;5.85;4.38;;;;;;;3.56;51.56;97731.53;11177120;23;20024;-83
2021/03/18 21:02:59;;;;;;;8.05;4.78;;;;;;;3.53;52.16;97732.66;11092873;23;20053;-89
2021/03/18 21:08:20;;;;;;;5.53;4.32;;;;;;;3.44;51.88;97730.41;11815570;23;20024;-87
2021/03/18 21:13:40;;;;;;;4.90;3.35;;;;;;;3.36;52.07;97724.84;11240610;23;20066;-83
2021/03/18 21:19:04;;;;;;;5.20;3.88;;;;;;;3.30;52.98;97726.31;10797528;23;20056;-87
2021/03/18 21:24:24;;;;;;;4.20;3.15;;;;;;;3.25;53.69;97724.44;10099824;29;20049;-88
2021/03/18 21:30:16;;;;;;;6.00;3.97;;;;;;;3.19;53.63;97718.38;10435162;23;20053;31
2021/03/18 21:35:36;;;;;;;4.78;3.90;;;;;;;3.15;53.69;97722.22;9963890;29;20050;-77
2021/03/18 21:40:56;;;;;;;4.38;3.40;;;;;;;3.09;54.06;97724.41;9964561;29;20050;-81
2021/03/18 21:46:15;;;;;;;5.20;3.30;;;;;;;3.01;54.70;97711.84;10011933;29;20045;-86
2021/03/18 21:51:36;;;;;;;4.43;3.28;;;;;;;2.97;54.82;97712.19;9987203;29;20038;-86
2021/03/18 21:56:56;;;;;;;3.97;2.67;;;;;;;2.89;55.01;97705.91;10248782;24;20065;-86
2021/03/18 22:02:27;;;;;;;3.28;2.63;;;;;;;2.89;55.81;97705.91;11857857;23;20065;-88
2021/03/18 22:07:47;;;;;;;4.72;3.00;;;;;;;2.90;55.47;97704.63;10604392;23;20040;-86
2021/03/18 22:13:16;;;;;;;5.22;3.15;;;;;;;2.92;55.81;97698.56;10362763;24;20041;-88
2021/03/18 22:18:36;;;;;;;4.22;3.00;;;;;;;2.95;55.56;97698.22;10194051;23;20028;-85
2021/03/18 22:23:57;;;;;;;3.72;2.63;;;;;;;2.98;56.67;97694.38;10120816;29;20033;-87
2021/03/18 22:29:17;;;;;;;4.43;2.38;;;;;;;3.07;56.28;97698.63;10333939;23;20558;-84
2021/03/18 22:34:39;;;;;;;3.35;2.63;;;;;;;3.05;56.53;97690.91;10165964;29;20044;-83
2021/03/18 22:40:00;;;;;;;4.43;2.33;;;;;;;3.03;57.36;97687.97;10161935;29;20055;-83
2021/03/18 22:45:20;;;;;;;3.45;2.38;;;;;;;3.01;56.84;97695.31;10189269;29;20056;-88
2021/03/18 22:50:41;;;;;;;3.70;2.42;;;;;;;3.04;57.53;97691.44;10180378;29;20040;-86
2021/03/18 22:56:01;;;;;;;3.72;2.33;;;;;;;3.03;57.32;97690.72;10186840;29;20052;-87
2021/03/18 23:01:22;;;;;;;3.92;2.60;;;;;;;3.02;57.80;97685.75;10199626;29;20044;-87
2021/03/18 23:06:44;;;;;;;6.25;3.17;;;;;;;2.98;57.88;97685.34;10186357;29;20048;-86
2021/03/18 23:12:05;;;;;;;5.90;3.33;;;;;;;2.99;58.39;97690.34;10170057;29;20052;-87
2021/03/18 23:17:28;;;;;;;5.85;3.65;;;;;;;2.97;58.08;97681.13;10196075;29;20108;-88
2021/03/18 23:22:49;;;;;;;4.82;3.25;;;;;;;2.97;58.81;97678.38;10182620;29;20055;-86
2021/03/18 23:28:21;;;;;;;4.45;3.33;;;;;;;2.87;59.03;97672.63;10171682;29;20035;-87
2021/03/18 23:33:41;;;;;;;5.05;4.00;;;;;;;2.74;59.19;97670.72;10159693;29;20041;-86
2021/03/18 23:39:02;;;;;;;6.68;4.38;;;;;;;2.65;59.60;97681.53;10142965;29;20496;-87
2021/03/18 23:44:22;;;;;;;6.28;4.47;;;;;;;2.52;59.67;97679.63;10169283;29;20065;-86
2021/03/18 23:49:43;;;;;;;5.85;3.85;;;;;;;2.46;60.32;97668.75;10169455;29;20055;-86
2021/03/18 23:55:05;;;;;;;6.18;4.07;;;;;;;2.44;60.21;97676.81;10145017;29;20048;-86
